createdAt,value
2022-10-05T00:01:35.329Z,2.60
2022-10-05T00:04:15.436Z,2.30
2022-10-05T00:06:47.063Z,2.87
2022-10-05T00:09:20.943Z,2.70
2022-10-05T00:11:53.000Z,2.23
2022-10-05T00:14:23.660Z,3.10
2022-10-05T00:16:53.046Z,2.57
2022-10-05T00:19:25.101Z,2.90
2022-10-05T00:21:54.590Z,3.30
2022-10-05T00:24:24.175Z,3.00
2022-10-05T00:26:57.987Z,2.43
2022-10-05T00:29:27.881Z,3.30
2022-10-05T00:31:57.100Z,3.00
2022-10-05T00:34:26.626Z,2.50
2022-10-05T00:36:56.085Z,2.43
2022-10-05T00:39:30.020Z,2.40
2022-10-05T00:42:25.384Z,2.60
2022-10-05T00:44:57.939Z,2.40
2022-10-05T00:47:38.131Z,2.47
2022-10-05T00:50:29.415Z,3.10
2022-10-05T00:53:07.558Z,2.77
2022-10-05T00:55:48.197Z,3.17
2022-10-05T00:58:26.271Z,2.73
2022-10-05T01:01:03.496Z,2.40
2022-10-05T01:03:38.346Z,2.23
2022-10-05T01:06:14.434Z,2.53
2022-10-05T01:08:51.493Z,2.20
2022-10-05T01:11:29.569Z,2.43
2022-10-05T01:14:09.183Z,2.47
2022-10-05T01:16:45.996Z,2.13
2022-10-05T01:19:28.196Z,2.90
2022-10-05T01:22:05.640Z,2.20
2022-10-05T01:24:50.353Z,2.30
2022-10-05T01:27:46.438Z,2.33
2022-10-05T01:30:20.299Z,2.80
2022-10-05T01:32:52.796Z,1.80
2022-10-05T01:35:31.866Z,1.90
2022-10-05T01:38:09.370Z,2.20
2022-10-05T01:40:46.183Z,2.13
2022-10-05T01:43:21.737Z,2.50
2022-10-05T01:46:00.033Z,2.03
2022-10-05T01:48:38.875Z,2.10
2022-10-05T01:51:13.342Z,1.90
2022-10-05T01:53:51.260Z,1.83
2022-10-05T01:56:30.872Z,1.97
2022-10-05T01:59:16.542Z,2.30
2022-10-05T02:01:51.739Z,2.27
2022-10-05T02:04:43.624Z,2.00
2022-10-05T02:07:23.699Z,1.90
2022-10-05T02:10:00.403Z,2.40
2022-10-05T02:12:32.686Z,2.00
2022-10-05T02:15:11.143Z,2.10
2022-10-05T02:17:44.398Z,2.10
2022-10-05T02:20:19.285Z,2.47
2022-10-05T02:22:52.762Z,2.03
2022-10-05T02:25:24.767Z,2.00
2022-10-05T02:27:56.464Z,3.50
2022-10-05T02:30:27.770Z,2.30
2022-10-05T02:33:02.054Z,2.60
2022-10-05T02:35:33.402Z,2.50
2022-10-05T02:38:12.735Z,2.10
2022-10-05T02:40:56.284Z,1.73
2022-10-05T02:43:32.260Z,1.90
2022-10-05T02:46:08.796Z,2.27
2022-10-05T02:48:44.201Z,2.67
2022-10-05T02:51:19.778Z,2.80
2022-10-05T02:54:01.774Z,2.73
2022-10-05T02:56:36.446Z,3.00
2022-10-05T02:59:10.468Z,2.70
2022-10-05T03:01:45.545Z,2.97
2022-10-05T03:04:22.699Z,2.40
2022-10-05T03:07:00.415Z,2.60
2022-10-05T03:09:33.357Z,2.10
2022-10-05T03:12:24.915Z,2.93
2022-10-05T03:15:08.448Z,2.30
2022-10-05T03:17:46.416Z,2.50
2022-10-05T03:20:23.398Z,2.53
2022-10-05T03:22:56.928Z,2.63
2022-10-05T03:25:53.285Z,2.70
2022-10-05T03:28:29.256Z,2.77
2022-10-05T03:31:02.178Z,2.67
2022-10-05T03:33:40.828Z,2.53
2022-10-05T03:36:19.822Z,2.10
2022-10-05T03:39:01.935Z,2.20
2022-10-05T03:41:37.189Z,2.57
2022-10-05T03:44:19.473Z,3.00
2022-10-05T03:47:04.288Z,3.00
2022-10-05T03:49:47.556Z,2.97
2022-10-05T03:52:23.338Z,2.57
2022-10-05T03:54:56.299Z,2.63
2022-10-05T03:57:27.369Z,3.50
2022-10-05T04:00:02.686Z,2.67
2022-10-05T04:02:36.920Z,2.93
2022-10-05T04:05:16.549Z,3.10
2022-10-05T04:07:49.449Z,3.23
2022-10-05T04:10:22.879Z,3.03
2022-10-05T04:12:56.037Z,3.03
2022-10-05T04:15:31.246Z,2.70
2022-10-05T04:18:05.288Z,3.20
2022-10-05T04:20:43.375Z,3.20
2022-10-05T04:23:18.741Z,3.03
2022-10-05T04:25:52.105Z,2.70
2022-10-05T04:28:31.174Z,3.17
2022-10-05T04:31:02.742Z,3.23
2022-10-05T04:33:34.245Z,3.80
2022-10-05T04:36:22.614Z,3.33
2022-10-05T04:39:04.579Z,3.80
2022-10-05T04:41:53.539Z,3.70
2022-10-05T04:44:37.402Z,3.60
2022-10-05T04:47:19.465Z,3.43
2022-10-05T04:50:10.514Z,3.83
2022-10-05T04:52:48.943Z,3.40
2022-10-05T04:55:26.783Z,4.57
2022-10-05T04:58:02.409Z,3.97
2022-10-05T05:00:38.211Z,3.50
2022-10-05T05:03:23.832Z,3.73
2022-10-05T05:06:16.391Z,4.30
2022-10-05T05:09:13.652Z,3.87
2022-10-05T05:11:50.572Z,4.73
2022-10-05T05:14:47.270Z,4.03
2022-10-05T05:17:28.141Z,4.80
2022-10-05T05:20:08.677Z,3.90
2022-10-05T05:22:50.430Z,4.33
2022-10-05T05:25:59.003Z,4.83
2022-10-05T05:29:44.920Z,4.33
2022-10-05T05:36:30.571Z,3.90
2022-10-05T05:42:25.274Z,4.80
2022-10-05T05:44:56.795Z,4.33
2022-10-05T05:47:35.353Z,4.90
2022-10-05T05:50:28.338Z,4.47
2022-10-05T05:53:12.467Z,4.90
2022-10-05T05:55:46.628Z,5.70
2022-10-05T05:58:29.321Z,4.80
2022-10-05T06:01:01.198Z,5.60
2022-10-05T06:03:35.912Z,5.90
2022-10-05T06:06:08.185Z,6.00
2022-10-05T06:08:50.505Z,5.70
2022-10-05T06:11:24.881Z,5.53
2022-10-05T06:13:56.902Z,5.70
2022-10-05T06:16:33.384Z,6.10
2022-10-05T06:19:11.252Z,6.57
2022-10-05T06:21:44.984Z,7.83
2022-10-05T06:24:19.054Z,6.90
2022-10-05T06:27:25.023Z,8.70
2022-10-05T06:30:15.285Z,8.83
2022-10-05T06:33:04.290Z,9.10
2022-10-05T06:35:43.367Z,6.97
2022-10-05T06:38:38.890Z,6.43
2022-10-05T06:41:20.113Z,7.20
2022-10-05T06:43:56.570Z,6.77
2022-10-05T06:46:33.276Z,6.77
2022-10-05T06:49:18.132Z,7.07
2022-10-05T06:51:54.714Z,6.53
2022-10-05T06:54:47.321Z,6.80
2022-10-05T06:57:33.759Z,6.70
2022-10-05T07:00:05.583Z,6.30
2022-10-05T07:02:40.444Z,6.93
2022-10-05T07:05:41.175Z,7.10
2022-10-05T07:08:13.512Z,7.27
2022-10-05T07:10:53.119Z,6.03
2022-10-05T07:13:46.368Z,7.03
2022-10-05T07:16:22.422Z,6.23
2022-10-05T07:19:00.651Z,6.87
2022-10-05T07:21:35.784Z,6.77
2022-10-05T07:24:11.570Z,6.80
2022-10-05T07:26:45.417Z,7.40
2022-10-05T07:29:23.655Z,6.30
2022-10-05T07:32:02.785Z,7.43
2022-10-05T07:34:42.524Z,6.83
2022-10-05T07:37:32.677Z,7.20
2022-10-05T07:40:10.421Z,7.60
2022-10-05T07:42:51.867Z,7.47
2022-10-05T07:45:29.804Z,7.93
2022-10-05T07:48:00.818Z,8.33
2022-10-05T07:50:36.916Z,8.50
2022-10-05T07:53:12.783Z,7.40
2022-10-05T07:55:45.316Z,9.10
2022-10-05T07:58:21.231Z,8.37
2022-10-05T08:01:06.631Z,8.60
2022-10-05T08:03:44.910Z,9.43
2022-10-05T08:06:28.188Z,7.93
2022-10-05T08:09:01.461Z,8.87
2022-10-05T08:11:35.161Z,7.87
2022-10-05T08:14:10.576Z,10.67
2022-10-05T08:16:41.257Z,8.33
2022-10-05T08:19:18.574Z,9.07
2022-10-05T08:21:52.951Z,7.80
2022-10-05T08:24:35.574Z,10.10
2022-10-05T08:27:07.788Z,9.10
2022-10-05T08:29:40.690Z,9.30
2022-10-05T08:32:15.863Z,9.83
2022-10-05T08:34:51.359Z,9.87
2022-10-05T08:37:24.954Z,8.27
2022-10-05T08:39:57.983Z,9.60
2022-10-05T08:42:51.531Z,8.97
2022-10-05T08:45:50.763Z,10.13
2022-10-05T08:48:50.287Z,8.60
2022-10-05T08:51:50.053Z,8.37
2022-10-05T08:54:42.214Z,9.13
2022-10-05T08:57:48.230Z,7.43
2022-10-05T09:00:20.373Z,9.77
2022-10-05T09:03:06.768Z,8.73
2022-10-05T09:06:05.511Z,8.07
2022-10-05T09:08:51.501Z,8.57
2022-10-05T09:11:28.117Z,8.97
2022-10-05T09:14:12.032Z,7.57
2022-10-05T09:16:55.788Z,7.87
2022-10-05T09:20:01.305Z,6.97
2022-10-05T09:22:38.444Z,7.83
2022-10-05T09:25:19.777Z,7.33
2022-10-05T09:27:56.981Z,8.10
2022-10-05T09:30:47.015Z,7.80
2022-10-05T09:33:53.220Z,9.03
2022-10-05T09:36:51.514Z,8.00
2022-10-05T09:39:32.401Z,7.10
2022-10-05T09:42:28.934Z,6.43
2022-10-05T09:45:36.878Z,7.00
2022-10-05T09:48:55.315Z,6.83
2022-10-05T09:51:55.140Z,4.40
2022-10-05T09:55:01.875Z,5.20
2022-10-05T09:58:03.939Z,5.07
2022-10-05T10:00:51.491Z,5.50
2022-10-05T10:04:13.741Z,4.80
2022-10-05T10:07:07.488Z,4.83
2022-10-05T10:09:41.574Z,5.40
2022-10-05T10:12:28.477Z,5.30
2022-10-05T10:15:33.118Z,5.50
2022-10-05T10:18:37.608Z,5.80
2022-10-05T10:21:25.156Z,5.10
2022-10-05T10:24:28.755Z,6.23
2022-10-05T10:27:11.482Z,5.37
2022-10-05T10:30:13.266Z,4.93
2022-10-05T10:33:17.909Z,5.00
2022-10-05T10:35:52.372Z,5.03
2022-10-05T10:38:34.029Z,4.23
2022-10-05T10:41:31.945Z,4.63
2022-10-05T10:44:25.285Z,4.70
2022-10-05T10:47:07.320Z,5.47
2022-10-05T10:49:47.835Z,4.90
2022-10-05T10:52:27.870Z,5.13
2022-10-05T10:55:28.934Z,4.60
2022-10-05T10:58:33.469Z,5.00
2022-10-05T11:01:15.325Z,4.47
2022-10-05T11:04:13.927Z,5.17
2022-10-05T11:07:19.559Z,4.77
2022-10-05T11:10:13.424Z,4.87
2022-10-05T11:13:14.266Z,5.03
2022-10-05T11:16:15.949Z,5.50
2022-10-05T11:19:05.388Z,5.07
2022-10-05T11:21:39.215Z,6.00
2022-10-05T11:24:44.613Z,4.00
2022-10-05T11:27:36.286Z,4.67
2022-10-05T11:30:31.607Z,4.40
2022-10-05T11:33:31.319Z,4.30
2022-10-05T11:36:16.569Z,4.73
2022-10-05T11:39:13.041Z,4.43
2022-10-05T11:42:25.542Z,4.43
2022-10-05T11:45:17.619Z,4.70
2022-10-05T11:48:16.914Z,4.40
2022-10-05T11:50:55.862Z,5.27
2022-10-05T11:53:28.683Z,4.00
2022-10-05T11:56:06.559Z,4.30
2022-10-05T11:58:38.477Z,4.70
2022-10-05T12:01:17.168Z,4.30
2022-10-05T12:03:57.204Z,4.60
2022-10-05T12:06:42.307Z,4.60
2022-10-05T12:09:32.604Z,5.17
2022-10-05T12:12:11.410Z,4.63
2022-10-05T12:14:49.459Z,5.33
2022-10-05T12:17:24.447Z,4.70
2022-10-05T12:19:58.207Z,3.90
2022-10-05T12:22:33.431Z,3.73
2022-10-05T12:25:21.733Z,3.90
2022-10-05T12:27:53.976Z,3.70
2022-10-05T12:30:30.747Z,4.20
2022-10-05T12:33:03.866Z,3.70
2022-10-05T12:35:53.772Z,3.50
2022-10-05T12:38:28.627Z,4.17
2022-10-05T12:41:05.754Z,4.17
2022-10-05T12:43:43.217Z,3.33
2022-10-05T12:46:19.301Z,4.07
2022-10-05T12:48:59.232Z,3.57
2022-10-05T12:51:36.890Z,4.37
2022-10-05T12:54:16.238Z,3.80
2022-10-05T12:56:48.872Z,3.93
2022-10-05T12:59:28.628Z,3.80
2022-10-05T13:02:06.374Z,3.90
2022-10-05T13:04:42.916Z,3.70
2022-10-05T13:07:23.962Z,3.30
2022-10-05T13:10:01.375Z,4.67
2022-10-05T13:12:36.697Z,4.73
2022-10-05T13:15:11.785Z,4.30
2022-10-05T13:17:45.752Z,4.10
2022-10-05T13:20:22.224Z,4.93
2022-10-05T13:22:57.713Z,3.90
2022-10-05T13:25:32.622Z,3.90
2022-10-05T13:28:16.564Z,5.00
2022-10-05T13:30:53.708Z,4.23
2022-10-05T13:33:28.784Z,4.90
2022-10-05T13:36:16.859Z,4.03
2022-10-05T13:38:54.752Z,4.23
2022-10-05T13:41:36.826Z,4.27
2022-10-05T13:44:16.180Z,5.10
2022-10-05T13:46:51.322Z,4.50
2022-10-05T13:49:29.438Z,4.53
2022-10-05T13:52:02.652Z,4.20
2022-10-05T13:54:41.555Z,4.87
2022-10-05T13:57:21.257Z,3.70
2022-10-05T13:59:55.341Z,4.30
2022-10-05T14:02:30.421Z,4.33
2022-10-05T14:05:04.823Z,4.13
2022-10-05T14:07:38.121Z,4.27
2022-10-05T14:10:18.844Z,4.67
2022-10-05T14:12:56.203Z,4.47
2022-10-05T14:15:37.309Z,4.50
2022-10-05T14:18:27.107Z,4.00
2022-10-05T14:21:18.755Z,4.10
2022-10-05T14:23:48.031Z,5.23
2022-10-05T14:26:31.866Z,3.97
2022-10-05T14:29:05.072Z,3.40
2022-10-05T14:31:38.057Z,3.83
2022-10-05T14:34:33.128Z,3.90
2022-10-05T14:37:10.126Z,4.20
2022-10-05T14:39:43.701Z,4.87
2022-10-05T14:42:18.241Z,3.73
2022-10-05T14:45:00.587Z,3.83
2022-10-05T14:47:34.388Z,4.43
2022-10-05T14:50:17.806Z,4.20
2022-10-05T14:52:59.755Z,4.20
2022-10-05T14:55:40.140Z,5.40
2022-10-05T14:58:28.767Z,5.10
2022-10-05T15:01:05.152Z,4.43
2022-10-05T15:03:47.777Z,4.23
2022-10-05T15:06:23.036Z,5.20
2022-10-05T15:09:17.774Z,3.80
2022-10-05T15:11:51.753Z,4.10
2022-10-05T15:14:26.440Z,4.20
2022-10-05T15:17:01.876Z,4.87
2022-10-05T15:19:40.965Z,3.93
2022-10-05T15:22:20.794Z,4.63
2022-10-05T15:24:59.787Z,4.30
2022-10-05T15:27:33.676Z,4.47
2022-10-05T15:30:09.619Z,3.60
2022-10-05T15:33:01.105Z,3.97
2022-10-05T15:35:55.675Z,4.70
2022-10-05T15:38:26.622Z,3.80
2022-10-05T15:41:11.835Z,4.60
2022-10-05T15:43:50.406Z,3.83
2022-10-05T15:46:24.401Z,4.10
2022-10-05T15:49:02.353Z,5.60
2022-10-05T15:51:43.565Z,5.57
2022-10-05T15:54:38.831Z,5.63
2022-10-05T15:57:12.737Z,6.20
2022-10-05T15:59:47.362Z,6.47
2022-10-05T16:02:20.737Z,6.80
2022-10-05T16:04:59.981Z,7.53
2022-10-05T16:07:55.202Z,5.60
2022-10-05T16:10:25.900Z,6.17
2022-10-05T16:13:06.523Z,5.90
2022-10-05T16:15:38.701Z,6.07
2022-10-05T16:18:44.183Z,5.90
2022-10-05T16:21:22.966Z,6.77
2022-10-05T16:24:06.310Z,6.40
2022-10-05T16:26:47.819Z,9.07
2022-10-05T16:29:24.038Z,9.37
2022-10-05T16:31:57.150Z,8.80
2022-10-05T16:34:37.755Z,9.40
2022-10-05T16:37:11.703Z,10.20
2022-10-05T16:39:55.850Z,10.67
2022-10-05T16:42:46.518Z,10.20
2022-10-05T16:45:29.071Z,8.97
2022-10-05T16:48:05.207Z,8.57
2022-10-05T16:50:40.641Z,7.97
2022-10-05T16:53:18.165Z,8.90
2022-10-05T16:55:50.603Z,8.77
2022-10-05T16:58:25.595Z,9.03
2022-10-05T17:01:09.260Z,8.63
2022-10-05T17:03:58.008Z,8.57
2022-10-05T17:06:55.785Z,8.90
2022-10-05T17:09:48.693Z,9.07
2022-10-05T17:12:29.462Z,9.57
2022-10-05T17:15:10.762Z,11.10
2022-10-05T17:17:50.179Z,10.47
2022-10-05T17:20:42.950Z,10.30
2022-10-05T17:23:29.313Z,11.90
2022-10-05T17:26:10.571Z,13.30
2022-10-05T17:28:41.068Z,15.87
2022-10-05T17:31:19.092Z,18.40
2022-10-05T17:34:25.037Z,16.87
2022-10-05T17:36:59.781Z,15.50
2022-10-05T17:39:50.206Z,15.50
2022-10-05T17:42:57.584Z,13.47
2022-10-05T17:45:53.451Z,10.53
2022-10-05T17:49:06.823Z,10.63
2022-10-05T17:52:15.873Z,10.37
2022-10-05T17:55:27.357Z,10.10
2022-10-05T17:58:24.725Z,10.80
2022-10-05T18:01:07.138Z,9.40
2022-10-05T18:03:48.093Z,10.57
2022-10-05T18:06:41.841Z,10.10
2022-10-05T18:09:45.211Z,10.83
2022-10-05T18:12:41.266Z,10.43
2022-10-05T18:15:45.071Z,9.30
2022-10-05T18:18:54.664Z,8.90
2022-10-05T18:21:32.550Z,9.70
2022-10-05T18:24:18.243Z,9.33
2022-10-05T18:26:54.471Z,8.77
2022-10-05T18:29:53.985Z,9.30
2022-10-05T18:32:31.247Z,8.80
2022-10-05T18:35:04.093Z,9.83
2022-10-05T18:37:41.810Z,9.43
2022-10-05T18:40:30.177Z,9.37
2022-10-05T18:43:06.490Z,8.73
2022-10-05T18:45:43.098Z,9.50
2022-10-05T18:48:21.535Z,9.10
2022-10-05T18:50:53.662Z,8.77
2022-10-05T18:53:31.283Z,9.00
2022-10-05T18:56:05.022Z,8.70
2022-10-05T18:58:40.947Z,8.40
2022-10-05T19:01:48.435Z,9.33
2022-10-05T19:04:27.221Z,9.33
2022-10-05T19:07:05.937Z,8.93
2022-10-05T19:09:48.216Z,9.50
2022-10-05T19:12:25.746Z,8.73
2022-10-05T19:15:00.217Z,9.63
2022-10-05T19:17:42.839Z,10.57
2022-10-05T19:20:20.560Z,10.90
2022-10-05T19:23:12.155Z,10.30
2022-10-05T19:25:47.625Z,9.63
2022-10-05T19:28:26.005Z,12.00
2022-10-05T19:31:15.408Z,10.30
2022-10-05T19:33:55.736Z,10.13
2022-10-05T19:36:38.017Z,10.23
2022-10-05T19:39:11.966Z,10.33
2022-10-05T19:42:00.126Z,9.33
2022-10-05T19:44:42.392Z,9.93
2022-10-05T19:47:19.495Z,9.90
2022-10-05T19:49:59.298Z,8.87
2022-10-05T19:52:39.643Z,10.03
2022-10-05T19:55:15.503Z,8.53
2022-10-05T19:57:52.417Z,9.00
2022-10-05T20:00:26.759Z,8.83
2022-10-05T20:03:11.969Z,8.00
2022-10-05T20:05:41.379Z,8.47
2022-10-05T20:08:18.309Z,7.80
2022-10-05T20:10:47.954Z,7.20
2022-10-05T20:13:23.165Z,7.80
2022-10-05T20:16:39.912Z,7.67
2022-10-05T20:19:45.595Z,6.77
2022-10-05T20:22:34.346Z,6.57
2022-10-05T20:25:07.586Z,7.67
2022-10-05T20:27:47.400Z,6.67
2022-10-05T20:30:19.051Z,6.57
2022-10-05T20:32:49.946Z,7.53
2022-10-05T20:35:21.882Z,6.80
2022-10-05T20:37:51.488Z,6.77
2022-10-05T20:40:22.517Z,6.53
2022-10-05T20:42:51.732Z,6.87
2022-10-05T20:45:21.027Z,5.80
2022-10-05T20:47:51.476Z,5.50
2022-10-05T20:50:22.283Z,7.00
2022-10-05T20:52:51.515Z,6.90
2022-10-05T20:55:22.088Z,6.50
2022-10-05T20:57:51.520Z,6.90
2022-10-05T21:00:20.807Z,6.47
2022-10-05T21:02:49.722Z,6.67
2022-10-05T21:05:18.982Z,7.27
2022-10-05T21:07:48.366Z,8.20
2022-10-05T21:10:17.571Z,6.83
2022-10-05T21:12:48.315Z,8.43
2022-10-05T21:15:17.650Z,7.37
2022-10-05T21:17:49.292Z,7.07
2022-10-05T21:20:19.096Z,7.63
2022-10-05T21:22:48.250Z,7.20
2022-10-05T21:25:17.487Z,6.77
2022-10-05T21:27:48.740Z,7.43
2022-10-05T21:30:18.127Z,6.53
2022-10-05T21:32:47.622Z,6.57
2022-10-05T21:35:17.445Z,6.10
2022-10-05T21:37:46.593Z,5.73
2022-10-05T21:40:16.227Z,6.40
2022-10-05T21:42:45.412Z,6.73
2022-10-05T21:45:16.255Z,6.37
2022-10-05T21:47:46.489Z,6.60
2022-10-05T21:50:15.762Z,6.90
2022-10-05T21:52:45.245Z,7.17
2022-10-05T21:55:14.467Z,6.80
2022-10-05T21:57:43.890Z,6.43
2022-10-05T22:00:14.190Z,7.43
2022-10-05T22:02:45.006Z,5.80
2022-10-05T22:05:14.180Z,6.57
2022-10-05T22:07:43.656Z,6.80
2022-10-05T22:10:12.985Z,7.10
2022-10-05T22:12:42.723Z,7.00
2022-10-05T22:15:12.153Z,7.07
2022-10-05T22:17:46.319Z,6.67
2022-10-05T22:20:17.149Z,7.77
2022-10-05T22:22:46.283Z,6.13
2022-10-05T22:25:16.102Z,7.33
2022-10-05T22:27:45.881Z,6.00
2022-10-05T22:30:15.940Z,6.30
2022-10-05T22:32:46.916Z,6.90
2022-10-05T22:35:16.682Z,6.80
2022-10-05T22:37:46.060Z,6.80
2022-10-05T22:40:15.480Z,7.70
2022-10-05T22:42:44.689Z,6.70
2022-10-05T22:45:14.224Z,6.50
2022-10-05T22:47:45.119Z,5.83
2022-10-05T22:50:14.526Z,6.70
2022-10-05T22:52:43.814Z,6.33
2022-10-05T22:55:13.230Z,6.30
2022-10-05T22:57:43.163Z,5.67
2022-10-05T23:00:13.500Z,5.93
2022-10-05T23:02:45.816Z,5.37
2022-10-05T23:05:17.152Z,5.47
2022-10-05T23:07:48.100Z,6.47
2022-10-05T23:10:19.509Z,6.40
2022-10-05T23:13:00.523Z,7.30
2022-10-05T23:15:30.275Z,6.50
2022-10-05T23:18:01.286Z,6.40
2022-10-05T23:20:30.727Z,6.70
2022-10-05T23:23:01.250Z,7.27
2022-10-05T23:25:30.453Z,7.10
2022-10-05T23:27:59.843Z,6.33
2022-10-05T23:30:29.481Z,6.17
2022-10-05T23:33:00.103Z,5.83
2022-10-05T23:35:29.422Z,6.23
2022-10-05T23:37:58.676Z,6.30
2022-10-05T23:40:28.059Z,6.40
2022-10-05T23:42:57.276Z,6.53
2022-10-05T23:45:26.524Z,6.30
2022-10-05T23:47:55.735Z,6.60
2022-10-05T23:50:27.583Z,6.27
2022-10-05T23:52:56.860Z,6.30
2022-10-05T23:55:25.874Z,7.00
2022-10-05T23:57:54.923Z,6.43
